Hauptseite
METAR-TAF:

METAR-TAF

Flughäfen :

Flughafen Frankfurt am Main

Frankfurt am Main, Deutschland

Breite: 50-03N, Länge: 008-36E, Höhe: 111 m

Beobachtung

Neuester Wetterbericht von vor 11 Minuten, um 06:20 UTC
Wind 2 kt aus unterschiedlichen Richtungen
Temperatur 0°C
Luftfeuchtigkeit 93%
Luftdruck 1045 hPa
Sichtweite 10 km oder mehr
Aufgelockert bewölkt in der Höhe von 4100 ft

METAR: EDDF 200620Z VRB02KT 9999 SCT041 00/M01 Q1045 NOSIG

Zeit: 07:31 (06:31 UTC)

Prognose

Neuester Wetterbericht von vor 1 Stunde und 31 Minuten, um 05:00 UTC
Gültige Prognose vom 20 um 06 UTC bis 21 um 12 UTC
Wind 3 kt aus unterschiedlichen Richtungen
Sichtweite 10 km oder mehr
Aufgelockert bewölkt in der Höhe von 4000 ft
Übergehend zu
vom 20 um 06 UTC bis 20 um 08 UTC
Wind 6 kt aus Nord/Nordost

TAF: EDDF 200500Z 2006/2112 VRB03KT 9999 SCT040 BECMG 2006/2008 03006KT

Wetterbeobachtungen und Prognosen von mehr als 4000 Flughäfen (METAR und TAF Bericht).

Die verfügbaren Stationen werden durch gelbe und rote Markierungen auf der Karte dargestellt.

Führen Sie die Maus auf sie, um den Namen der Station zu sehen.

Darauf klicken, um die Beobachtung von Wetterbeobachtungen und Prognosen zu sehen.

Um die Karte zu ändern : klicken Sie auf den grünen Tasten mit einem schwarzen Kreuz Zum Vergrößern, auf den grünen Button mit einem Gedankenstrich zu verkleinern, oder auf die grünen Pfeile für benachbarte Karten.


METAR-TAF: